sensor_id;sensor_type;location;lat;lon;timestamp;P1;durP1;ratioP1;P2;durP2;ratioP2
72261;SDS011;60173;52.112;8.648;2023-04-05T00:00:53;11.90;;;5.00;;
72261;SDS011;60173;52.112;8.648;2023-04-05T00:03:19;7.82;;;4.10;;
72261;SDS011;60173;52.112;8.648;2023-04-05T00:05:46;8.40;;;4.22;;
72261;SDS011;60173;52.112;8.648;2023-04-05T00:08:13;13.05;;;4.88;;
72261;SDS011;60173;52.112;8.648;2023-04-05T00:10:39;6.75;;;4.22;;
72261;SDS011;60173;52.112;8.648;2023-04-05T00:13:06;8.73;;;4.50;;
72261;SDS011;60173;52.112;8.648;2023-04-05T00:15:32;7.60;;;4.35;;
72261;SDS011;60173;52.112;8.648;2023-04-05T00:17:59;11.35;;;4.82;;
72261;SDS011;60173;52.112;8.648;2023-04-05T00:20:25;8.90;;;4.72;;
72261;SDS011;60173;52.112;8.648;2023-04-05T00:22:52;8.30;;;4.57;;
72261;SDS011;60173;52.112;8.648;2023-04-05T00:25:18;11.20;;;5.47;;
72261;SDS011;60173;52.112;8.648;2023-04-05T00:27:44;10.30;;;5.05;;
72261;SDS011;60173;52.112;8.648;2023-04-05T00:30:11;11.38;;;4.75;;
72261;SDS011;60173;52.112;8.648;2023-04-05T00:32:37;8.95;;;4.75;;
72261;SDS011;60173;52.112;8.648;2023-04-05T00:35:04;9.80;;;4.70;;
72261;SDS011;60173;52.112;8.648;2023-04-05T00:37:30;9.75;;;4.90;;
72261;SDS011;60173;52.112;8.648;2023-04-05T00:39:57;10.50;;;5.00;;
72261;SDS011;60173;52.112;8.648;2023-04-05T00:42:23;9.52;;;4.55;;
72261;SDS011;60173;52.112;8.648;2023-04-05T00:44:49;13.10;;;5.18;;
72261;SDS011;60173;52.112;8.648;2023-04-05T00:47:16;8.32;;;4.40;;
72261;SDS011;60173;52.112;8.648;2023-04-05T00:49:42;10.02;;;5.20;;
72261;SDS011;60173;52.112;8.648;2023-04-05T00:52:08;10.77;;;5.03;;
72261;SDS011;60173;52.112;8.648;2023-04-05T00:54:35;8.95;;;5.18;;
72261;SDS011;60173;52.112;8.648;2023-04-05T00:57:01;8.25;;;4.90;;
72261;SDS011;60173;52.112;8.648;2023-04-05T00:59:28;9.63;;;5.10;;
72261;SDS011;60173;52.112;8.648;2023-04-05T01:01:55;13.13;;;5.50;;
72261;SDS011;60173;52.112;8.648;2023-04-05T01:04:27;10.30;;;5.43;;
72261;SDS011;60173;52.112;8.648;2023-04-05T01:07:06;10.98;;;5.18;;
72261;SDS011;60173;52.112;8.648;2023-04-05T01:12:17;10.20;;;5.05;;
72261;SDS011;60173;52.112;8.648;2023-04-05T01:14:46;13.75;;;5.47;;
72261;SDS011;60173;52.112;8.648;2023-04-05T01:17:13;11.88;;;5.80;;
72261;SDS011;60173;52.112;8.648;2023-04-05T01:19:39;9.07;;;4.90;;
72261;SDS011;60173;52.112;8.648;2023-04-05T01:22:20;10.95;;;5.47;;
72261;SDS011;60173;52.112;8.648;2023-04-05T01:30:47;13.27;;;6.00;;
72261;SDS011;60173;52.112;8.648;2023-04-05T01:33:21;10.50;;;5.38;;
72261;SDS011;60173;52.112;8.648;2023-04-05T01:36:54;9.27;;;5.57;;
72261;SDS011;60173;52.112;8.648;2023-04-05T01:38:48;13.60;;;6.00;;
72261;SDS011;60173;52.112;8.648;2023-04-05T01:41:15;13.23;;;6.43;;
72261;SDS011;60173;52.112;8.648;2023-04-05T01:43:42;15.15;;;6.20;;
72261;SDS011;60173;52.112;8.648;2023-04-05T01:46:08;10.85;;;5.78;;
72261;SDS011;60173;52.112;8.648;2023-04-05T01:48:35;9.40;;;4.97;;
72261;SDS011;60173;52.112;8.648;2023-04-05T01:51:01;9.30;;;5.63;;
72261;SDS011;60173;52.112;8.648;2023-04-05T01:53:28;14.02;;;6.53;;
72261;SDS011;60173;52.112;8.648;2023-04-05T01:55:58;10.77;;;5.32;;
72261;SDS011;60173;52.112;8.648;2023-04-05T01:58:25;13.43;;;5.88;;
72261;SDS011;60173;52.112;8.648;2023-04-05T02:00:55;11.57;;;6.03;;
72261;SDS011;60173;52.112;8.648;2023-04-05T02:03:22;13.23;;;6.35;;
72261;SDS011;60173;52.112;8.648;2023-04-05T02:05:50;9.15;;;5.57;;
72261;SDS011;60173;52.112;8.648;2023-04-05T02:08:16;11.82;;;6.28;;
72261;SDS011;60173;52.112;8.648;2023-04-05T02:10:43;10.50;;;5.78;;
72261;SDS011;60173;52.112;8.648;2023-04-05T02:13:10;13.13;;;6.45;;
72261;SDS011;60173;52.112;8.648;2023-04-05T02:15:36;13.60;;;6.68;;
72261;SDS011;60173;52.112;8.648;2023-04-05T02:18:03;15.00;;;6.97;;
72261;SDS011;60173;52.112;8.648;2023-04-05T02:20:29;12.18;;;6.78;;
72261;SDS011;60173;52.112;8.648;2023-04-05T02:22:56;12.55;;;6.88;;
72261;SDS011;60173;52.112;8.648;2023-04-05T02:25:22;14.85;;;6.90;;
72261;SDS011;60173;52.112;8.648;2023-04-05T02:27:48;11.98;;;6.53;;
72261;SDS011;60173;52.112;8.648;2023-04-05T02:30:15;15.30;;;6.05;;
72261;SDS011;60173;52.112;8.648;2023-04-05T02:32:41;11.07;;;6.10;;
72261;SDS011;60173;52.112;8.648;2023-04-05T02:35:08;12.63;;;6.00;;
72261;SDS011;60173;52.112;8.648;2023-04-05T02:37:35;11.18;;;5.78;;
72261;SDS011;60173;52.112;8.648;2023-04-05T02:40:01;12.05;;;6.03;;
72261;SDS011;60173;52.112;8.648;2023-04-05T02:42:31;10.82;;;5.72;;
72261;SDS011;60173;52.112;8.648;2023-04-05T02:44:57;13.40;;;5.65;;
72261;SDS011;60173;52.112;8.648;2023-04-05T02:47:24;10.77;;;5.72;;
72261;SDS011;60173;52.112;8.648;2023-04-05T02:49:50;10.90;;;5.30;;
72261;SDS011;60173;52.112;8.648;2023-04-05T02:52:16;10.07;;;5.57;;
72261;SDS011;60173;52.112;8.648;2023-04-05T02:54:43;11.07;;;5.65;;
72261;SDS011;60173;52.112;8.648;2023-04-05T02:57:09;14.32;;;6.55;;
72261;SDS011;60173;52.112;8.648;2023-04-05T02:59:36;11.80;;;6.07;;
72261;SDS011;60173;52.112;8.648;2023-04-05T03:02:03;12.45;;;6.22;;
72261;SDS011;60173;52.112;8.648;2023-04-05T03:04:30;11.02;;;6.30;;
72261;SDS011;60173;52.112;8.648;2023-04-05T03:06:56;10.52;;;5.88;;
72261;SDS011;60173;52.112;8.648;2023-04-05T03:09:23;13.52;;;6.15;;
72261;SDS011;60173;52.112;8.648;2023-04-05T03:11:49;11.85;;;5.78;;
72261;SDS011;60173;52.112;8.648;2023-04-05T03:14:15;14.07;;;6.53;;
72261;SDS011;60173;52.112;8.648;2023-04-05T03:16:42;11.68;;;5.95;;
72261;SDS011;60173;52.112;8.648;2023-04-05T03:19:08;13.35;;;6.22;;
72261;SDS011;60173;52.112;8.648;2023-04-05T03:21:34;12.98;;;6.30;;
72261;SDS011;60173;52.112;8.648;2023-04-05T03:24:01;12.00;;;6.40;;
72261;SDS011;60173;52.112;8.648;2023-04-05T03:26:27;11.63;;;6.10;;
72261;SDS011;60173;52.112;8.648;2023-04-05T03:28:53;13.20;;;6.45;;
72261;SDS011;60173;52.112;8.648;2023-04-05T03:31:20;16.30;;;6.93;;
72261;SDS011;60173;52.112;8.648;2023-04-05T03:33:46;15.30;;;6.22;;
72261;SDS011;60173;52.112;8.648;2023-04-05T03:36:12;13.07;;;6.22;;
72261;SDS011;60173;52.112;8.648;2023-04-05T03:38:39;15.43;;;6.95;;
72261;SDS011;60173;52.112;8.648;2023-04-05T03:41:07;16.75;;;7.00;;
72261;SDS011;60173;52.112;8.648;2023-04-05T03:43:34;19.38;;;7.03;;
72261;SDS011;60173;52.112;8.648;2023-04-05T03:46:00;12.45;;;6.38;;
72261;SDS011;60173;52.112;8.648;2023-04-05T03:48:26;13.98;;;7.20;;
72261;SDS011;60173;52.112;8.648;2023-04-05T03:50:53;16.45;;;6.75;;
72261;SDS011;60173;52.112;8.648;2023-04-05T03:53:19;13.00;;;6.72;;
72261;SDS011;60173;52.112;8.648;2023-04-05T03:55:45;15.57;;;7.30;;
72261;SDS011;60173;52.112;8.648;2023-04-05T03:58:12;13.57;;;6.35;;
72261;SDS011;60173;52.112;8.648;2023-04-05T04:00:38;18.52;;;7.20;;
72261;SDS011;60173;52.112;8.648;2023-04-05T04:03:04;14.70;;;6.32;;
72261;SDS011;60173;52.112;8.648;2023-04-05T04:05:31;11.95;;;6.18;;
72261;SDS011;60173;52.112;8.648;2023-04-05T04:07:57;15.75;;;7.18;;
72261;SDS011;60173;52.112;8.648;2023-04-05T04:10:23;11.95;;;6.75;;
72261;SDS011;60173;52.112;8.648;2023-04-05T04:12:50;14.00;;;7.07;;
72261;SDS011;60173;52.112;8.648;2023-04-05T04:15:16;15.25;;;6.82;;
72261;SDS011;60173;52.112;8.648;2023-04-05T04:17:42;19.48;;;7.10;;
72261;SDS011;60173;52.112;8.648;2023-04-05T04:20:09;14.27;;;6.90;;
72261;SDS011;60173;52.112;8.648;2023-04-05T04:22:36;17.10;;;6.60;;
72261;SDS011;60173;52.112;8.648;2023-04-05T04:25:07;14.60;;;7.05;;
72261;SDS011;60173;52.112;8.648;2023-04-05T04:27:37;12.77;;;7.28;;
72261;SDS011;60173;52.112;8.648;2023-04-05T04:30:08;18.58;;;7.15;;
72261;SDS011;60173;52.112;8.648;2023-04-05T04:32:36;17.40;;;7.70;;
72261;SDS011;60173;52.112;8.648;2023-04-05T04:35:03;15.90;;;7.25;;
72261;SDS011;60173;52.112;8.648;2023-04-05T04:37:30;17.45;;;7.47;;
72261;SDS011;60173;52.112;8.648;2023-04-05T04:39:56;15.45;;;7.32;;
72261;SDS011;60173;52.112;8.648;2023-04-05T04:42:22;15.75;;;7.90;;
72261;SDS011;60173;52.112;8.648;2023-04-05T04:44:49;12.35;;;6.97;;
72261;SDS011;60173;52.112;8.648;2023-04-05T04:47:15;15.63;;;6.65;;
72261;SDS011;60173;52.112;8.648;2023-04-05T04:49:42;16.08;;;7.13;;
72261;SDS011;60173;52.112;8.648;2023-04-05T04:52:08;15.85;;;7.38;;
72261;SDS011;60173;52.112;8.648;2023-04-05T04:54:35;24.23;;;7.63;;
72261;SDS011;60173;52.112;8.648;2023-04-05T04:57:01;13.45;;;6.88;;
72261;SDS011;60173;52.112;8.648;2023-04-05T04:59:28;18.55;;;7.20;;
72261;SDS011;60173;52.112;8.648;2023-04-05T05:01:55;16.50;;;7.22;;
72261;SDS011;60173;52.112;8.648;2023-04-05T05:04:21;12.98;;;7.07;;
72261;SDS011;60173;52.112;8.648;2023-04-05T05:06:52;14.60;;;7.18;;
72261;SDS011;60173;52.112;8.648;2023-04-05T05:09:18;15.15;;;7.55;;
72261;SDS011;60173;52.112;8.648;2023-04-05T05:11:45;15.88;;;7.65;;
72261;SDS011;60173;52.112;8.648;2023-04-05T05:14:11;14.77;;;7.18;;
72261;SDS011;60173;52.112;8.648;2023-04-05T05:16:37;20.80;;;8.10;;
72261;SDS011;60173;52.112;8.648;2023-04-05T05:19:04;14.50;;;7.43;;
72261;SDS011;60173;52.112;8.648;2023-04-05T05:21:30;18.63;;;8.35;;
72261;SDS011;60173;52.112;8.648;2023-04-05T05:23:56;15.57;;;7.20;;
72261;SDS011;60173;52.112;8.648;2023-04-05T05:26:23;13.88;;;7.10;;
72261;SDS011;60173;52.112;8.648;2023-04-05T05:28:49;17.67;;;8.23;;
72261;SDS011;60173;52.112;8.648;2023-04-05T05:31:15;15.15;;;8.02;;
72261;SDS011;60173;52.112;8.648;2023-04-05T05:33:42;14.00;;;7.25;;
72261;SDS011;60173;52.112;8.648;2023-04-05T05:36:08;16.75;;;7.50;;
72261;SDS011;60173;52.112;8.648;2023-04-05T05:38:34;22.52;;;8.75;;
72261;SDS011;60173;52.112;8.648;2023-04-05T05:41:01;17.33;;;7.93;;
72261;SDS011;60173;52.112;8.648;2023-04-05T05:43:27;15.75;;;8.18;;
72261;SDS011;60173;52.112;8.648;2023-04-05T05:45:53;18.35;;;8.55;;
72261;SDS011;60173;52.112;8.648;2023-04-05T05:48:20;17.20;;;8.45;;
72261;SDS011;60173;52.112;8.648;2023-04-05T05:50:46;18.85;;;8.13;;
72261;SDS011;60173;52.112;8.648;2023-04-05T05:53:13;17.77;;;8.27;;
72261;SDS011;60173;52.112;8.648;2023-04-05T05:55:39;21.73;;;8.32;;
72261;SDS011;60173;52.112;8.648;2023-04-05T05:58:05;18.02;;;8.65;;
72261;SDS011;60173;52.112;8.648;2023-04-05T06:00:32;15.82;;;8.10;;
72261;SDS011;60173;52.112;8.648;2023-04-05T06:02:58;21.02;;;8.00;;
72261;SDS011;60173;52.112;8.648;2023-04-05T06:05:24;20.27;;;7.88;;
72261;SDS011;60173;52.112;8.648;2023-04-05T06:07:51;15.40;;;7.40;;
72261;SDS011;60173;52.112;8.648;2023-04-05T06:10:17;13.73;;;6.78;;
72261;SDS011;60173;52.112;8.648;2023-04-05T06:12:44;10.77;;;6.38;;
72261;SDS011;60173;52.112;8.648;2023-04-05T06:15:10;12.95;;;6.18;;
72261;SDS011;60173;52.112;8.648;2023-04-05T06:17:36;11.55;;;5.85;;
72261;SDS011;60173;52.112;8.648;2023-04-05T06:20:03;9.95;;;5.75;;
72261;SDS011;60173;52.112;8.648;2023-04-05T06:22:29;9.85;;;5.25;;
72261;SDS011;60173;52.112;8.648;2023-04-05T06:24:55;12.15;;;5.50;;
72261;SDS011;60173;52.112;8.648;2023-04-05T06:27:22;9.10;;;5.40;;
72261;SDS011;60173;52.112;8.648;2023-04-05T06:29:48;8.80;;;5.35;;
72261;SDS011;60173;52.112;8.648;2023-04-05T06:32:14;13.85;;;5.15;;
72261;SDS011;60173;52.112;8.648;2023-04-05T06:34:41;11.38;;;5.97;;
72261;SDS011;60173;52.112;8.648;2023-04-05T06:37:07;10.43;;;5.90;;
72261;SDS011;60173;52.112;8.648;2023-04-05T06:39:33;11.88;;;5.88;;
72261;SDS011;60173;52.112;8.648;2023-04-05T06:42:00;10.20;;;5.53;;
72261;SDS011;60173;52.112;8.648;2023-04-05T06:44:26;15.68;;;6.30;;
72261;SDS011;60173;52.112;8.648;2023-04-05T06:46:52;12.85;;;6.43;;
72261;SDS011;60173;52.112;8.648;2023-04-05T06:49:19;12.85;;;6.90;;
72261;SDS011;60173;52.112;8.648;2023-04-05T06:51:45;15.25;;;7.18;;
72261;SDS011;60173;52.112;8.648;2023-04-05T06:54:11;18.70;;;7.20;;
72261;SDS011;60173;52.112;8.648;2023-04-05T06:56:38;16.02;;;7.80;;
72261;SDS011;60173;52.112;8.648;2023-04-05T06:59:04;12.05;;;6.32;;
72261;SDS011;60173;52.112;8.648;2023-04-05T07:01:30;12.77;;;6.78;;
72261;SDS011;60173;52.112;8.648;2023-04-05T07:03:57;13.75;;;6.93;;
72261;SDS011;60173;52.112;8.648;2023-04-05T07:06:23;15.95;;;7.35;;
72261;SDS011;60173;52.112;8.648;2023-04-05T07:08:50;12.43;;;7.05;;
72261;SDS011;60173;52.112;8.648;2023-04-05T07:11:16;13.98;;;7.13;;
72261;SDS011;60173;52.112;8.648;2023-04-05T07:13:42;12.93;;;7.10;;
72261;SDS011;60173;52.112;8.648;2023-04-05T07:16:09;16.90;;;7.60;;
72261;SDS011;60173;52.112;8.648;2023-04-05T07:18:35;15.50;;;7.32;;
72261;SDS011;60173;52.112;8.648;2023-04-05T07:21:01;18.85;;;6.60;;
72261;SDS011;60173;52.112;8.648;2023-04-05T07:23:28;12.55;;;6.38;;
72261;SDS011;60173;52.112;8.648;2023-04-05T07:26:02;12.15;;;5.32;;
72261;SDS011;60173;52.112;8.648;2023-04-05T07:28:29;9.43;;;5.53;;
72261;SDS011;60173;52.112;8.648;2023-04-05T07:30:56;9.07;;;4.90;;
72261;SDS011;60173;52.112;8.648;2023-04-05T07:33:22;9.38;;;4.65;;
72261;SDS011;60173;52.112;8.648;2023-04-05T07:35:52;10.40;;;4.90;;
72261;SDS011;60173;52.112;8.648;2023-04-05T07:38:19;8.60;;;4.28;;
72261;SDS011;60173;52.112;8.648;2023-04-05T07:40:49;8.93;;;4.72;;
72261;SDS011;60173;52.112;8.648;2023-04-05T07:43:16;8.60;;;4.65;;
72261;SDS011;60173;52.112;8.648;2023-04-05T07:45:43;9.73;;;4.30;;
72261;SDS011;60173;52.112;8.648;2023-04-05T07:48:10;8.65;;;4.32;;
72261;SDS011;60173;52.112;8.648;2023-04-05T07:50:36;9.10;;;4.22;;
72261;SDS011;60173;52.112;8.648;2023-04-05T07:53:03;11.55;;;4.75;;
72261;SDS011;60173;52.112;8.648;2023-04-05T07:55:29;9.32;;;4.25;;
72261;SDS011;60173;52.112;8.648;2023-04-05T07:57:55;9.23;;;4.10;;
72261;SDS011;60173;52.112;8.648;2023-04-05T08:00:22;6.88;;;3.72;;
72261;SDS011;60173;52.112;8.648;2023-04-05T08:02:48;8.98;;;3.58;;
72261;SDS011;60173;52.112;8.648;2023-04-05T08:05:15;6.47;;;3.95;;
72261;SDS011;60173;52.112;8.648;2023-04-05T08:07:41;10.95;;;4.47;;
72261;SDS011;60173;52.112;8.648;2023-04-05T08:10:08;11.07;;;3.70;;
72261;SDS011;60173;52.112;8.648;2023-04-05T08:12:35;9.27;;;3.92;;
72261;SDS011;60173;52.112;8.648;2023-04-05T08:15:04;6.60;;;3.88;;
72261;SDS011;60173;52.112;8.648;2023-04-05T08:17:30;8.82;;;3.90;;
72261;SDS011;60173;52.112;8.648;2023-04-05T08:19:57;8.02;;;4.00;;
72261;SDS011;60173;52.112;8.648;2023-04-05T08:22:26;9.15;;;3.83;;
72261;SDS011;60173;52.112;8.648;2023-04-05T08:24:53;9.98;;;4.20;;
72261;SDS011;60173;52.112;8.648;2023-04-05T08:27:20;7.28;;;4.07;;
72261;SDS011;60173;52.112;8.648;2023-04-05T08:29:46;6.63;;;3.28;;
72261;SDS011;60173;52.112;8.648;2023-04-05T08:32:12;10.48;;;4.07;;
72261;SDS011;60173;52.112;8.648;2023-04-05T08:34:39;8.55;;;3.80;;
72261;SDS011;60173;52.112;8.648;2023-04-05T08:37:05;11.43;;;4.28;;
72261;SDS011;60173;52.112;8.648;2023-04-05T08:39:33;11.20;;;4.47;;
72261;SDS011;60173;52.112;8.648;2023-04-05T08:42:06;7.05;;;3.55;;
72261;SDS011;60173;52.112;8.648;2023-04-05T08:44:40;7.07;;;3.47;;
72261;SDS011;60173;52.112;8.648;2023-04-05T08:47:09;7.78;;;3.53;;
72261;SDS011;60173;52.112;8.648;2023-04-05T08:49:41;8.32;;;3.67;;
72261;SDS011;60173;52.112;8.648;2023-04-05T08:52:08;9.40;;;3.60;;
72261;SDS011;60173;52.112;8.648;2023-04-05T08:54:34;7.60;;;3.60;;
72261;SDS011;60173;52.112;8.648;2023-04-05T08:57:02;8.60;;;3.67;;
72261;SDS011;60173;52.112;8.648;2023-04-05T08:59:31;8.18;;;3.22;;
72261;SDS011;60173;52.112;8.648;2023-04-05T09:01:58;8.27;;;3.40;;
72261;SDS011;60173;52.112;8.648;2023-04-05T09:04:28;12.55;;;3.90;;
72261;SDS011;60173;52.112;8.648;2023-04-05T09:06:57;7.13;;;3.63;;
72261;SDS011;60173;52.112;8.648;2023-04-05T09:09:24;7.22;;;3.78;;
72261;SDS011;60173;52.112;8.648;2023-04-05T09:11:50;5.00;;;3.35;;
72261;SDS011;60173;52.112;8.648;2023-04-05T09:14:17;5.22;;;3.33;;
72261;SDS011;60173;52.112;8.648;2023-04-05T09:16:45;5.75;;;3.40;;
72261;SDS011;60173;52.112;8.648;2023-04-05T09:19:11;4.97;;;3.22;;
72261;SDS011;60173;52.112;8.648;2023-04-05T09:21:56;6.38;;;3.05;;
72261;SDS011;60173;52.112;8.648;2023-04-05T09:24:30;9.95;;;3.70;;
72261;SDS011;60173;52.112;8.648;2023-04-05T09:27:02;7.40;;;3.45;;
72261;SDS011;60173;52.112;8.648;2023-04-05T09:29:29;7.03;;;3.45;;
72261;SDS011;60173;52.112;8.648;2023-04-05T09:31:55;7.43;;;3.40;;
72261;SDS011;60173;52.112;8.648;2023-04-05T09:34:22;4.47;;;3.10;;
72261;SDS011;60173;52.112;8.648;2023-04-05T09:36:49;9.05;;;3.42;;
72261;SDS011;60173;52.112;8.648;2023-04-05T09:39:15;8.80;;;3.55;;
72261;SDS011;60173;52.112;8.648;2023-04-05T09:41:41;9.13;;;3.60;;
72261;SDS011;60173;52.112;8.648;2023-04-05T09:44:08;8.57;;;3.72;;
72261;SDS011;60173;52.112;8.648;2023-04-05T09:46:35;6.97;;;3.40;;
72261;SDS011;60173;52.112;8.648;2023-04-05T09:49:02;6.35;;;3.47;;
72261;SDS011;60173;52.112;8.648;2023-04-05T09:51:32;5.78;;;3.42;;
72261;SDS011;60173;52.112;8.648;2023-04-05T09:54:09;5.25;;;3.67;;
72261;SDS011;60173;52.112;8.648;2023-04-05T09:56:37;6.97;;;3.80;;
72261;SDS011;60173;52.112;8.648;2023-04-05T09:59:06;7.93;;;4.03;;
72261;SDS011;60173;52.112;8.648;2023-04-05T10:01:34;8.13;;;3.30;;
72261;SDS011;60173;52.112;8.648;2023-04-05T10:04:04;6.70;;;3.85;;
72261;SDS011;60173;52.112;8.648;2023-04-05T10:06:40;7.05;;;4.40;;
72261;SDS011;60173;52.112;8.648;2023-04-05T10:09:08;8.88;;;4.35;;
72261;SDS011;60173;52.112;8.648;2023-04-05T10:11:36;7.78;;;3.83;;
72261;SDS011;60173;52.112;8.648;2023-04-05T10:14:04;7.18;;;3.90;;
72261;SDS011;60173;52.112;8.648;2023-04-05T10:16:37;8.15;;;4.07;;
72261;SDS011;60173;52.112;8.648;2023-04-05T10:19:25;7.15;;;4.05;;
72261;SDS011;60173;52.112;8.648;2023-04-05T10:21:54;8.55;;;4.45;;
72261;SDS011;60173;52.112;8.648;2023-04-05T10:24:37;9.23;;;4.05;;
72261;SDS011;60173;52.112;8.648;2023-04-05T10:27:16;6.18;;;3.60;;
72261;SDS011;60173;52.112;8.648;2023-04-05T10:30:07;5.85;;;3.67;;
72261;SDS011;60173;52.112;8.648;2023-04-05T10:32:52;9.60;;;4.03;;
72261;SDS011;60173;52.112;8.648;2023-04-05T10:35:33;5.95;;;3.78;;
72261;SDS011;60173;52.112;8.648;2023-04-05T10:41:06;8.95;;;3.60;;
72261;SDS011;60173;52.112;8.648;2023-04-05T10:43:36;9.73;;;4.30;;
72261;SDS011;60173;52.112;8.648;2023-04-05T10:46:05;7.18;;;3.95;;
72261;SDS011;60173;52.112;8.648;2023-04-05T10:51:23;8.32;;;3.70;;
72261;SDS011;60173;52.112;8.648;2023-04-05T10:53:50;6.72;;;3.85;;
72261;SDS011;60173;52.112;8.648;2023-04-05T10:56:16;9.52;;;4.00;;
72261;SDS011;60173;52.112;8.648;2023-04-05T10:58:44;8.05;;;3.78;;
72261;SDS011;60173;52.112;8.648;2023-04-05T11:01:13;9.35;;;4.05;;
72261;SDS011;60173;52.112;8.648;2023-04-05T11:09:07;5.88;;;3.47;;
72261;SDS011;60173;52.112;8.648;2023-04-05T11:11:37;5.50;;;3.80;;
72261;SDS011;60173;52.112;8.648;2023-04-05T11:14:20;6.75;;;4.05;;
72261;SDS011;60173;52.112;8.648;2023-04-05T11:16:49;7.93;;;3.90;;
72261;SDS011;60173;52.112;8.648;2023-04-05T11:19:17;9.57;;;3.75;;
72261;SDS011;60173;52.112;8.648;2023-04-05T11:21:43;4.80;;;3.53;;
72261;SDS011;60173;52.112;8.648;2023-04-05T11:24:11;7.70;;;3.70;;
72261;SDS011;60173;52.112;8.648;2023-04-05T11:29:04;4.95;;;3.33;;
72261;SDS011;60173;52.112;8.648;2023-04-05T11:31:32;7.18;;;3.53;;
72261;SDS011;60173;52.112;8.648;2023-04-05T11:33:59;6.65;;;3.85;;
72261;SDS011;60173;52.112;8.648;2023-04-05T11:36:29;5.25;;;3.50;;
72261;SDS011;60173;52.112;8.648;2023-04-05T11:41:46;7.75;;;3.72;;
72261;SDS011;60173;52.112;8.648;2023-04-05T11:44:29;5.80;;;3.47;;
72261;SDS011;60173;52.112;8.648;2023-04-05T11:47:05;5.78;;;3.47;;
72261;SDS011;60173;52.112;8.648;2023-04-05T11:49:32;5.63;;;3.53;;
72261;SDS011;60173;52.112;8.648;2023-04-05T11:52:08;6.30;;;3.35;;
72261;SDS011;60173;52.112;8.648;2023-04-05T11:54:36;6.53;;;3.45;;
72261;SDS011;60173;52.112;8.648;2023-04-05T11:57:02;5.75;;;3.80;;
72261;SDS011;60173;52.112;8.648;2023-04-05T11:59:29;7.15;;;3.28;;
72261;SDS011;60173;52.112;8.648;2023-04-05T12:02:00;6.68;;;3.33;;
72261;SDS011;60173;52.112;8.648;2023-04-05T12:04:28;8.75;;;3.65;;
72261;SDS011;60173;52.112;8.648;2023-04-05T12:10:01;6.40;;;3.63;;
72261;SDS011;60173;52.112;8.648;2023-04-05T12:12:35;8.20;;;3.67;;
72261;SDS011;60173;52.112;8.648;2023-04-05T12:15:04;7.53;;;4.13;;
72261;SDS011;60173;52.112;8.648;2023-04-05T12:17:42;6.20;;;3.40;;
72261;SDS011;60173;52.112;8.648;2023-04-05T12:20:16;7.90;;;3.88;;
72261;SDS011;60173;52.112;8.648;2023-04-05T12:22:46;6.55;;;3.67;;
72261;SDS011;60173;52.112;8.648;2023-04-05T12:25:17;7.10;;;3.70;;
72261;SDS011;60173;52.112;8.648;2023-04-05T12:27:44;4.47;;;3.20;;
72261;SDS011;60173;52.112;8.648;2023-04-05T12:30:12;7.53;;;3.58;;
72261;SDS011;60173;52.112;8.648;2023-04-05T12:35:16;5.82;;;3.20;;
72261;SDS011;60173;52.112;8.648;2023-04-05T12:37:50;6.38;;;4.10;;
72261;SDS011;60173;52.112;8.648;2023-04-05T12:40:23;4.78;;;3.63;;
72261;SDS011;60173;52.112;8.648;2023-04-05T12:42:49;6.60;;;3.80;;
72261;SDS011;60173;52.112;8.648;2023-04-05T12:45:16;4.45;;;3.50;;
72261;SDS011;60173;52.112;8.648;2023-04-05T12:47:47;7.53;;;3.53;;
72261;SDS011;60173;52.112;8.648;2023-04-05T12:50:17;6.03;;;3.50;;
72261;SDS011;60173;52.112;8.648;2023-04-05T12:52:53;6.90;;;3.72;;
72261;SDS011;60173;52.112;8.648;2023-04-05T12:55:23;5.47;;;3.58;;
72261;SDS011;60173;52.112;8.648;2023-04-05T12:58:00;6.55;;;3.92;;
72261;SDS011;60173;52.112;8.648;2023-04-05T13:00:27;5.15;;;3.50;;
72261;SDS011;60173;52.112;8.648;2023-04-05T13:02:55;6.28;;;3.30;;
72261;SDS011;60173;52.112;8.648;2023-04-05T13:05:23;5.13;;;3.47;;
72261;SDS011;60173;52.112;8.648;2023-04-05T13:07:56;5.72;;;3.90;;
72261;SDS011;60173;52.112;8.648;2023-04-05T13:10:23;6.85;;;3.70;;
72261;SDS011;60173;52.112;8.648;2023-04-05T13:12:50;5.40;;;3.40;;
72261;SDS011;60173;52.112;8.648;2023-04-05T13:15:17;5.25;;;3.30;;
72261;SDS011;60173;52.112;8.648;2023-04-05T13:17:44;6.15;;;3.70;;
72261;SDS011;60173;52.112;8.648;2023-04-05T13:20:11;5.25;;;3.47;;
72261;SDS011;60173;52.112;8.648;2023-04-05T13:22:37;6.70;;;3.70;;
72261;SDS011;60173;52.112;8.648;2023-04-05T13:25:04;5.10;;;3.40;;
72261;SDS011;60173;52.112;8.648;2023-04-05T13:27:31;6.13;;;3.47;;
72261;SDS011;60173;52.112;8.648;2023-04-05T13:29:57;5.97;;;3.28;;
72261;SDS011;60173;52.112;8.648;2023-04-05T13:32:24;5.82;;;3.28;;
72261;SDS011;60173;52.112;8.648;2023-04-05T13:34:50;7.55;;;3.88;;
72261;SDS011;60173;52.112;8.648;2023-04-05T13:37:16;5.28;;;3.10;;
72261;SDS011;60173;52.112;8.648;2023-04-05T13:39:43;3.75;;;3.20;;
72261;SDS011;60173;52.112;8.648;2023-04-05T13:42:09;6.25;;;3.42;;
72261;SDS011;60173;52.112;8.648;2023-04-05T13:44:35;7.75;;;3.75;;
72261;SDS011;60173;52.112;8.648;2023-04-05T13:47:02;6.00;;;3.30;;
72261;SDS011;60173;52.112;8.648;2023-04-05T13:49:28;5.45;;;3.38;;
72261;SDS011;60173;52.112;8.648;2023-04-05T13:51:54;5.10;;;3.35;;
72261;SDS011;60173;52.112;8.648;2023-04-05T13:54:21;5.70;;;3.20;;
72261;SDS011;60173;52.112;8.648;2023-04-05T13:56:47;6.57;;;3.30;;
72261;SDS011;60173;52.112;8.648;2023-04-05T13:59:13;5.40;;;3.20;;
72261;SDS011;60173;52.112;8.648;2023-04-05T14:01:40;6.18;;;3.20;;
72261;SDS011;60173;52.112;8.648;2023-04-05T14:04:08;5.45;;;3.55;;
72261;SDS011;60173;52.112;8.648;2023-04-05T14:06:34;7.90;;;3.63;;
72261;SDS011;60173;52.112;8.648;2023-04-05T14:09:01;7.07;;;3.42;;
72261;SDS011;60173;52.112;8.648;2023-04-05T14:11:27;8.65;;;4.07;;
72261;SDS011;60173;52.112;8.648;2023-04-05T14:13:54;6.32;;;4.00;;
72261;SDS011;60173;52.112;8.648;2023-04-05T14:16:20;7.22;;;3.80;;
72261;SDS011;60173;52.112;8.648;2023-04-05T14:18:47;8.13;;;3.88;;
72261;SDS011;60173;52.112;8.648;2023-04-05T14:21:13;4.88;;;3.17;;
72261;SDS011;60173;52.112;8.648;2023-04-05T14:23:39;6.85;;;3.50;;
72261;SDS011;60173;52.112;8.648;2023-04-05T14:26:06;6.65;;;3.45;;
72261;SDS011;60173;52.112;8.648;2023-04-05T14:28:32;5.55;;;3.75;;
72261;SDS011;60173;52.112;8.648;2023-04-05T14:30:58;5.13;;;3.25;;
72261;SDS011;60173;52.112;8.648;2023-04-05T14:33:25;6.63;;;3.35;;
72261;SDS011;60173;52.112;8.648;2023-04-05T14:35:52;5.90;;;3.53;;
72261;SDS011;60173;52.112;8.648;2023-04-05T14:38:19;7.30;;;4.13;;
72261;SDS011;60173;52.112;8.648;2023-04-05T14:40:45;4.93;;;3.50;;
72261;SDS011;60173;52.112;8.648;2023-04-05T14:43:11;6.30;;;4.18;;
72261;SDS011;60173;52.112;8.648;2023-04-05T14:45:38;9.35;;;3.83;;
72261;SDS011;60173;52.112;8.648;2023-04-05T14:48:04;6.20;;;3.65;;
72261;SDS011;60173;52.112;8.648;2023-04-05T14:50:30;6.20;;;3.50;;
72261;SDS011;60173;52.112;8.648;2023-04-05T14:53:00;6.43;;;3.88;;
72261;SDS011;60173;52.112;8.648;2023-04-05T14:55:27;7.15;;;3.22;;
72261;SDS011;60173;52.112;8.648;2023-04-05T14:57:53;5.35;;;3.53;;
72261;SDS011;60173;52.112;8.648;2023-04-05T15:00:20;5.35;;;3.50;;
72261;SDS011;60173;52.112;8.648;2023-04-05T15:02:46;6.15;;;3.45;;
72261;SDS011;60173;52.112;8.648;2023-04-05T15:05:13;5.80;;;3.83;;
72261;SDS011;60173;52.112;8.648;2023-04-05T15:07:40;6.63;;;3.85;;
72261;SDS011;60173;52.112;8.648;2023-04-05T15:10:06;8.52;;;3.92;;
72261;SDS011;60173;52.112;8.648;2023-04-05T15:12:33;6.10;;;3.53;;
72261;SDS011;60173;52.112;8.648;2023-04-05T15:14:59;6.15;;;3.75;;